createdAt,value
2018-09-13T00:02:06.761Z,6.50
2018-09-13T00:04:35.270Z,7.00
2018-09-13T00:07:03.838Z,6.20
2018-09-13T00:09:32.298Z,6.50
2018-09-13T00:12:00.761Z,6.90
2018-09-13T00:14:29.199Z,5.73
2018-09-13T00:16:57.716Z,5.90
2018-09-13T00:19:26.182Z,6.30
2018-09-13T00:21:54.645Z,5.63
2018-09-13T00:24:23.158Z,6.20
2018-09-13T00:26:51.941Z,6.70
2018-09-13T00:29:20.416Z,5.77
2018-09-13T00:31:48.879Z,6.80
2018-09-13T00:34:17.375Z,6.10
2018-09-13T00:36:45.820Z,7.23
2018-09-13T00:39:14.304Z,5.83
2018-09-13T00:41:43.388Z,6.60
2018-09-13T00:44:11.890Z,6.13
2018-09-13T00:46:40.467Z,6.17
2018-09-13T00:49:08.966Z,6.50
2018-09-13T00:51:37.425Z,6.20
2018-09-13T00:54:06.435Z,5.63
2018-09-13T00:56:34.914Z,6.50
2018-09-13T00:59:03.514Z,6.50
2018-09-13T01:01:31.935Z,5.87
2018-09-13T01:04:00.387Z,6.30
2018-09-13T01:06:28.849Z,6.27
2018-09-13T01:08:57.323Z,5.27
2018-09-13T01:11:25.797Z,6.10
2018-09-13T01:13:54.238Z,6.03
2018-09-13T01:16:22.791Z,6.43
2018-09-13T01:18:51.267Z,5.30
2018-09-13T01:21:20.163Z,5.90
2018-09-13T01:23:48.614Z,6.00
2018-09-13T01:26:17.153Z,5.63
2018-09-13T01:28:45.602Z,4.90
2018-09-13T01:31:14.109Z,5.60
2018-09-13T01:33:42.559Z,5.80
2018-09-13T01:36:11.059Z,4.77
2018-09-13T01:38:39.499Z,6.30
2018-09-13T01:41:08.029Z,5.70
2018-09-13T01:43:36.525Z,5.87
2018-09-13T01:46:04.983Z,5.60
2018-09-13T01:48:33.593Z,5.80
2018-09-13T01:51:02.999Z,5.43
2018-09-13T01:53:31.463Z,5.30
2018-09-13T01:55:59.888Z,4.50
2018-09-13T01:58:28.389Z,5.00
2018-09-13T02:00:57.388Z,5.40
2018-09-13T02:03:25.863Z,5.53
2018-09-13T02:05:54.306Z,5.30
2018-09-13T02:08:22.894Z,5.70
2018-09-13T02:10:51.387Z,4.77
2018-09-13T02:13:20.825Z,5.37
2018-09-13T02:15:49.490Z,5.47
2018-09-13T02:18:17.994Z,5.20
2018-09-13T02:20:46.466Z,5.50
2018-09-13T02:23:14.909Z,6.10
2018-09-13T02:25:43.356Z,5.60
2018-09-13T02:28:12.023Z,5.30
2018-09-13T02:30:40.478Z,4.97
2018-09-13T02:33:08.987Z,5.77
2018-09-13T02:35:37.452Z,5.90
2018-09-13T02:38:05.921Z,6.40
2018-09-13T02:40:34.553Z,4.40
2018-09-13T02:43:02.972Z,6.67
2018-09-13T02:45:31.493Z,4.77
2018-09-13T02:47:59.936Z,6.03
2018-09-13T02:50:28.650Z,4.63
2018-09-13T02:52:57.079Z,5.10
2018-09-13T02:55:25.548Z,6.40
2018-09-13T03:00:33.839Z,5.57
2018-09-13T03:03:02.248Z,5.40
2018-09-13T03:05:30.869Z,5.50
2018-09-13T03:07:59.288Z,5.40
2018-09-13T03:10:27.887Z,5.57
2018-09-13T03:12:56.331Z,5.43
2018-09-13T03:15:24.754Z,5.03
2018-09-13T03:17:53.352Z,5.13
2018-09-13T03:20:21.826Z,5.33
2018-09-13T03:22:50.294Z,4.67
2018-09-13T03:25:18.808Z,5.23
2018-09-13T03:27:47.597Z,5.17
2018-09-13T03:30:16.599Z,5.00
2018-09-13T03:32:45.566Z,5.53
2018-09-13T03:35:14.145Z,5.47
2018-09-13T03:37:42.631Z,5.03
2018-09-13T03:40:11.110Z,6.03
2018-09-13T03:42:39.727Z,6.73
2018-09-13T03:45:08.203Z,8.13
2018-09-13T03:47:36.799Z,8.60
2018-09-13T03:50:05.377Z,8.83
2018-09-13T03:52:33.856Z,9.60
2018-09-13T03:55:02.356Z,8.27
2018-09-13T03:57:31.033Z,9.50
2018-09-13T03:59:59.526Z,8.50
2018-09-13T04:02:28.019Z,10.17
2018-09-13T04:04:56.520Z,10.10
2018-09-13T04:07:25.315Z,9.00
2018-09-13T04:09:53.829Z,8.77
2018-09-13T04:12:22.756Z,8.27
2018-09-13T04:14:51.224Z,7.80
2018-09-13T04:17:19.712Z,7.43
2018-09-13T04:19:48.229Z,8.23
2018-09-13T04:22:17.513Z,6.17
2018-09-13T04:24:46.000Z,6.37
2018-09-13T04:27:15.040Z,6.03
2018-09-13T04:29:43.832Z,6.50
2018-09-13T04:32:12.320Z,6.33
2018-09-13T04:34:40.824Z,6.70
2018-09-13T04:37:09.681Z,6.47
2018-09-13T04:39:38.154Z,6.33
2018-09-13T04:42:06.642Z,6.47
2018-09-13T04:44:35.198Z,6.77
2018-09-13T04:47:03.708Z,6.50
2018-09-13T04:49:32.686Z,6.40
2018-09-13T04:52:01.163Z,6.37
2018-09-13T04:54:29.613Z,5.07
2018-09-13T04:56:58.071Z,5.70
2018-09-13T04:59:26.523Z,5.93
2018-09-13T05:01:55.033Z,6.30
2018-09-13T05:04:23.574Z,5.70
2018-09-13T05:06:52.153Z,5.00
2018-09-13T05:09:20.599Z,5.03
2018-09-13T05:11:49.082Z,6.00
2018-09-13T05:14:18.048Z,6.17
2018-09-13T05:16:46.491Z,5.80
2018-09-13T05:19:15.109Z,6.27
2018-09-13T05:21:44.465Z,5.90
2018-09-13T05:24:12.946Z,6.00
2018-09-13T05:26:41.511Z,6.27
2018-09-13T05:29:10.599Z,5.97
2018-09-13T05:31:39.089Z,5.57
2018-09-13T05:34:07.547Z,5.73
2018-09-13T05:36:36.015Z,5.90
2018-09-13T05:39:06.625Z,5.50
2018-09-13T05:41:35.087Z,5.87
2018-09-13T05:44:03.576Z,4.90
2018-09-13T05:46:32.052Z,5.70
2018-09-13T05:49:00.502Z,4.90
2018-09-13T05:51:29.025Z,5.33
2018-09-13T05:53:57.491Z,5.40
2018-09-13T05:56:26.038Z,5.57
2018-09-13T05:58:54.796Z,5.43
2018-09-13T06:01:23.294Z,5.50
2018-09-13T06:03:51.806Z,4.57
2018-09-13T06:06:20.332Z,6.10
2018-09-13T06:08:48.889Z,4.87
2018-09-13T06:11:17.386Z,5.40
2018-09-13T06:13:45.946Z,5.50
2018-09-13T06:16:14.447Z,5.30
2018-09-13T06:18:42.934Z,4.63
2018-09-13T06:21:11.906Z,5.20
2018-09-13T06:23:40.485Z,5.57
2018-09-13T06:26:09.155Z,5.13
2018-09-13T06:28:37.637Z,5.00
2018-09-13T06:31:06.251Z,5.10
2018-09-13T06:33:34.742Z,4.90
2018-09-13T06:36:03.196Z,5.10
2018-09-13T06:38:31.647Z,4.63
2018-09-13T06:41:00.127Z,4.67
2018-09-13T06:43:28.591Z,4.97
2018-09-13T06:45:57.823Z,6.83
2018-09-13T06:48:26.372Z,5.30
2018-09-13T06:50:54.828Z,5.13
2018-09-13T06:53:23.349Z,5.60
2018-09-13T06:55:51.816Z,4.70
2018-09-13T06:58:20.259Z,3.50
2018-09-13T07:00:48.909Z,4.70
2018-09-13T07:03:17.359Z,5.40
2018-09-13T07:05:46.515Z,4.20
2018-09-13T07:08:14.956Z,4.13
2018-09-13T07:10:43.590Z,4.60
2018-09-13T07:13:12.069Z,4.20
2018-09-13T07:15:40.542Z,4.13
2018-09-13T07:18:09.101Z,3.90
2018-09-13T07:20:38.726Z,3.53
2018-09-13T07:23:07.229Z,3.30
2018-09-13T07:25:35.860Z,4.30
2018-09-13T07:28:04.349Z,4.73
2018-09-13T07:30:32.866Z,4.13
2018-09-13T07:33:01.435Z,4.80
2018-09-13T07:35:29.935Z,4.33
2018-09-13T07:37:58.406Z,4.07
2018-09-13T07:40:26.870Z,3.37
2018-09-13T07:42:55.348Z,3.97
2018-09-13T07:45:23.871Z,3.90
2018-09-13T07:47:52.316Z,3.90
2018-09-13T07:50:20.920Z,3.53
2018-09-13T07:52:49.445Z,3.70
2018-09-13T07:55:17.926Z,4.10
2018-09-13T07:57:46.354Z,3.70
2018-09-13T08:00:14.890Z,4.27
2018-09-13T08:02:43.344Z,4.13
2018-09-13T08:05:12.208Z,3.57
2018-09-13T08:07:40.614Z,3.87
2018-09-13T08:10:09.378Z,3.83
2018-09-13T08:12:37.961Z,4.47
2018-09-13T08:15:06.430Z,3.70
2018-09-13T08:17:34.888Z,4.20
2018-09-13T08:20:03.400Z,4.37
2018-09-13T08:22:31.912Z,4.40
2018-09-13T08:25:00.796Z,4.13
2018-09-13T08:27:29.352Z,4.27
2018-09-13T08:29:58.137Z,3.60
2018-09-13T08:32:26.649Z,4.17
2018-09-13T08:34:56.251Z,3.97
2018-09-13T08:37:24.690Z,4.80
2018-09-13T08:39:53.645Z,4.10
2018-09-13T08:42:22.317Z,4.73
2018-09-13T08:44:51.007Z,4.27
2018-09-13T08:47:19.515Z,4.20
2018-09-13T08:49:47.987Z,4.43
2018-09-13T08:52:16.469Z,4.63
2018-09-13T08:54:44.892Z,3.80
2018-09-13T08:57:13.389Z,4.30
2018-09-13T08:59:41.883Z,4.87
2018-09-13T09:02:10.406Z,3.40
2018-09-13T09:04:38.869Z,4.93
2018-09-13T09:07:07.514Z,4.80
2018-09-13T09:09:35.990Z,4.70
2018-09-13T09:12:04.457Z,4.83
2018-09-13T09:14:32.946Z,4.87
2018-09-13T09:17:01.402Z,5.13
2018-09-13T09:19:30.066Z,5.10
2018-09-13T09:21:58.544Z,5.23
2018-09-13T09:24:27.302Z,4.70
2018-09-13T09:26:55.801Z,5.20
2018-09-13T09:29:25.236Z,5.00
2018-09-13T09:31:54.084Z,4.70
2018-09-13T09:34:22.533Z,5.30
2018-09-13T09:36:51.018Z,4.67
2018-09-13T09:39:19.514Z,5.97
2018-09-13T09:41:47.974Z,5.03
2018-09-13T09:44:16.527Z,5.30
2018-09-13T09:46:44.996Z,6.73
2018-09-13T09:49:13.582Z,5.83
2018-09-13T09:51:42.117Z,5.40
2018-09-13T09:54:10.583Z,4.90
2018-09-13T09:56:39.100Z,6.00
2018-09-13T09:59:07.665Z,5.40
2018-09-13T10:01:40.400Z,6.50
2018-09-13T10:04:08.866Z,5.97
2018-09-13T10:06:37.513Z,6.67
2018-09-13T10:09:07.936Z,4.97
2018-09-13T10:11:36.541Z,5.73
2018-09-13T10:14:05.025Z,5.50
2018-09-13T10:16:39.329Z,5.03
2018-09-13T10:19:13.142Z,5.30
2018-09-13T10:21:46.884Z,5.40
2018-09-13T10:24:20.722Z,6.53
2018-09-13T10:27:52.420Z,5.97
2018-09-13T10:30:26.299Z,5.43
2018-09-13T10:33:00.095Z,5.40
2018-09-13T10:35:33.884Z,6.30
2018-09-13T10:38:08.440Z,5.60
2018-09-13T10:40:42.334Z,5.40
2018-09-13T10:43:16.110Z,6.23
2018-09-13T10:45:50.146Z,6.80
2018-09-13T10:48:24.196Z,5.47
2018-09-13T10:50:58.040Z,6.07
2018-09-13T10:53:29.272Z,5.77
2018-09-13T10:55:57.795Z,5.13
2018-09-13T10:58:26.333Z,6.40
2018-09-13T11:00:54.822Z,5.37
2018-09-13T11:03:23.292Z,6.07
2018-09-13T11:05:51.750Z,6.07
2018-09-13T11:08:20.256Z,6.13
2018-09-13T11:10:49.845Z,7.57
2018-09-13T11:13:23.243Z,5.83
2018-09-13T11:15:51.924Z,8.17
2018-09-13T11:18:20.473Z,6.07
2018-09-13T11:20:48.953Z,5.33
2018-09-13T11:23:17.859Z,6.60
2018-09-13T11:25:46.431Z,7.07
2018-09-13T11:28:14.944Z,5.87
2018-09-13T11:30:43.508Z,5.40
2018-09-13T11:33:11.951Z,6.47
2018-09-13T11:35:40.516Z,6.83
2018-09-13T11:38:09.027Z,5.93
2018-09-13T11:40:37.712Z,4.13
2018-09-13T11:43:06.234Z,5.53
2018-09-13T11:45:34.722Z,5.03
2018-09-13T11:48:03.269Z,5.67
2018-09-13T11:50:31.787Z,6.13
2018-09-13T11:53:00.307Z,5.27
2018-09-13T11:55:28.771Z,4.60
2018-09-13T11:57:57.292Z,4.60
2018-09-13T12:00:25.761Z,5.30
2018-09-13T12:02:54.299Z,4.13
2018-09-13T12:05:22.800Z,4.50
2018-09-13T12:07:51.386Z,5.80
2018-09-13T12:10:19.901Z,6.23
2018-09-13T12:12:48.403Z,6.53
2018-09-13T12:15:16.890Z,5.93
2018-09-13T12:17:45.380Z,4.90
2018-09-13T12:20:13.830Z,5.53
2018-09-13T12:22:42.883Z,6.37
2018-09-13T12:25:11.394Z,5.00
2018-09-13T12:27:40.010Z,4.90
2018-09-13T12:30:08.483Z,5.50
2018-09-13T12:32:37.955Z,5.27
2018-09-13T12:35:07.161Z,4.83
2018-09-13T12:37:35.633Z,5.00
2018-09-13T12:40:04.456Z,5.80
2018-09-13T12:42:32.926Z,6.13
2018-09-13T12:45:01.408Z,5.10
2018-09-13T12:47:29.870Z,7.03
2018-09-13T12:49:58.626Z,5.37
2018-09-13T12:52:27.098Z,6.67
2018-09-13T12:54:55.563Z,6.40
2018-09-13T12:57:24.075Z,5.33
2018-09-13T12:59:52.584Z,6.33
2018-09-13T13:02:21.037Z,6.23
2018-09-13T13:04:50.129Z,5.10
2018-09-13T13:07:18.609Z,4.67
2018-09-13T13:09:47.106Z,5.77
2018-09-13T13:12:15.622Z,5.03
2018-09-13T13:14:44.123Z,6.90
2018-09-13T13:17:12.705Z,7.73
2018-09-13T13:19:41.759Z,6.20
2018-09-13T13:22:10.222Z,6.87
2018-09-13T13:24:38.670Z,6.17
2018-09-13T13:27:07.261Z,6.80
2018-09-13T13:29:36.089Z,5.17
2018-09-13T13:32:04.651Z,5.63
2018-09-13T13:34:33.181Z,7.53
2018-09-13T13:37:01.682Z,5.07
2018-09-13T13:39:30.226Z,5.63
2018-09-13T13:41:58.693Z,4.43
2018-09-13T13:44:27.155Z,5.60
2018-09-13T13:46:55.674Z,6.20
2018-09-13T13:49:24.189Z,4.70
2018-09-13T13:51:52.691Z,6.40
2018-09-13T13:54:21.144Z,5.77
2018-09-13T13:56:49.693Z,6.00
2018-09-13T13:59:18.269Z,4.57
2018-09-13T14:01:47.330Z,4.10
2018-09-13T14:04:15.991Z,6.10
2018-09-13T14:06:44.517Z,4.90
2018-09-13T14:09:13.900Z,5.97
2018-09-13T14:11:42.380Z,5.87
2018-09-13T14:14:10.848Z,5.00
2018-09-13T14:16:39.445Z,5.73
2018-09-13T14:19:07.963Z,6.57
2018-09-13T14:21:36.389Z,5.33
2018-09-13T14:24:04.898Z,6.07
2018-09-13T14:26:33.374Z,5.63
2018-09-13T14:29:01.864Z,5.60
2018-09-13T14:31:30.483Z,4.40
2018-09-13T14:33:58.947Z,6.00
2018-09-13T14:36:27.403Z,5.50
2018-09-13T14:38:55.857Z,4.60
2018-09-13T14:41:24.650Z,6.00
2018-09-13T14:43:53.143Z,5.70
2018-09-13T14:46:21.634Z,5.53
2018-09-13T14:48:50.120Z,6.80
2018-09-13T14:51:18.628Z,5.83
2018-09-13T14:53:47.069Z,4.60
2018-09-13T14:56:15.605Z,6.10
2018-09-13T14:58:44.174Z,6.73
2018-09-13T15:01:12.699Z,4.80
2018-09-13T15:03:41.157Z,6.50
2018-09-13T15:06:09.618Z,5.20
2018-09-13T15:08:38.099Z,5.50
2018-09-13T15:11:06.623Z,6.20
2018-09-13T15:13:35.120Z,5.73
2018-09-13T15:16:03.583Z,5.50
2018-09-13T15:18:32.214Z,5.00
2018-09-13T15:21:00.721Z,6.23
2018-09-13T15:23:29.232Z,4.70
2018-09-13T15:25:57.729Z,5.30
2018-09-13T15:28:26.795Z,4.73
2018-09-13T15:30:55.259Z,4.63
2018-09-13T15:33:23.748Z,4.47
2018-09-13T15:35:52.296Z,4.40
2018-09-13T15:38:20.778Z,4.70
2018-09-13T15:40:49.770Z,4.40
2018-09-13T15:43:18.360Z,3.73
2018-09-13T15:45:46.974Z,4.87
2018-09-13T15:48:15.564Z,4.23
2018-09-13T15:50:45.118Z,5.00
2018-09-13T15:53:13.660Z,5.27
2018-09-13T15:55:42.115Z,4.97
2018-09-13T15:58:10.676Z,3.80
2018-09-13T16:00:39.159Z,4.50
2018-09-13T16:03:07.818Z,4.60
2018-09-13T16:05:36.503Z,6.37
2018-09-13T16:08:04.989Z,4.90
2018-09-13T16:10:33.674Z,5.73
2018-09-13T16:13:03.269Z,6.10
2018-09-13T16:15:31.778Z,5.50
2018-09-13T16:18:00.587Z,4.63
2018-09-13T16:20:29.768Z,4.70
2018-09-13T16:22:58.521Z,5.03
2018-09-13T16:25:27.050Z,5.60
2018-09-13T16:27:55.654Z,5.27
2018-09-13T16:30:25.036Z,5.20
2018-09-13T16:32:53.579Z,5.43
2018-09-13T16:35:22.111Z,4.80
2018-09-13T16:37:55.841Z,5.00
2018-09-13T16:40:29.679Z,5.07
2018-09-13T16:43:03.625Z,5.70
2018-09-13T16:45:32.231Z,6.10
2018-09-13T16:48:03.508Z,6.27
2018-09-13T16:50:32.102Z,5.93
2018-09-13T16:53:00.708Z,5.90
2018-09-13T16:55:29.363Z,6.17
2018-09-13T16:57:58.023Z,6.53
2018-09-13T17:00:27.317Z,5.43
2018-09-13T17:02:58.741Z,5.87
2018-09-13T17:05:27.595Z,5.73
2018-09-13T17:07:56.276Z,6.00
2018-09-13T17:10:24.858Z,6.60
2018-09-13T17:12:53.419Z,7.17
2018-09-13T17:15:22.124Z,8.13
2018-09-13T17:17:52.073Z,7.23
2018-09-13T17:20:20.805Z,5.97
2018-09-13T17:22:49.567Z,7.00
2018-09-13T17:25:18.702Z,6.40
2018-09-13T17:27:47.433Z,6.50
2018-09-13T17:30:16.033Z,5.80
2018-09-13T17:32:45.640Z,5.60
2018-09-13T17:35:14.406Z,6.33
2018-09-13T17:37:43.877Z,6.17
2018-09-13T17:40:13.224Z,6.40
2018-09-13T17:42:42.170Z,5.93
2018-09-13T17:45:12.413Z,6.03
2018-09-13T17:47:41.699Z,6.17
2018-09-13T17:50:10.465Z,6.87
2018-09-13T17:52:39.331Z,13.10
2018-09-13T17:55:08.030Z,6.50
2018-09-13T17:57:36.673Z,5.80
2018-09-13T18:00:06.867Z,7.73
2018-09-13T18:02:36.260Z,7.00
2018-09-13T18:05:05.464Z,14.40
2018-09-13T18:07:34.317Z,9.93
2018-09-13T18:10:03.556Z,7.87
2018-09-13T18:12:32.781Z,7.53
2018-09-13T18:15:02.608Z,7.77
2018-09-13T18:17:32.421Z,16.97
2018-09-13T18:20:01.887Z,12.83
2018-09-13T18:22:31.406Z,10.70
2018-09-13T18:25:01.626Z,8.50
2018-09-13T18:27:31.037Z,7.30
2018-09-13T18:30:01.630Z,5.73
2018-09-13T18:32:30.775Z,6.27
2018-09-13T18:35:02.478Z,6.10
2018-09-13T18:37:32.592Z,7.00
2018-09-13T18:40:01.958Z,6.20
2018-09-13T18:42:31.385Z,5.30
2018-09-13T18:45:00.984Z,6.70
2018-09-13T18:47:30.688Z,7.27
2018-09-13T18:50:00.241Z,6.87
2018-09-13T18:52:30.009Z,7.10
2018-09-13T18:54:59.823Z,7.10
2018-09-13T18:57:29.341Z,7.53
2018-09-13T18:59:59.043Z,7.80
2018-09-13T19:02:28.178Z,6.93
2018-09-13T19:04:57.858Z,6.70
2018-09-13T19:07:26.873Z,6.30
2018-09-13T19:09:55.908Z,6.27
2018-09-13T19:12:26.014Z,6.30
2018-09-13T19:14:54.998Z,5.93
2018-09-13T19:17:24.602Z,6.73
2018-09-13T19:19:54.849Z,7.40
2018-09-13T19:22:24.107Z,6.43
2018-09-13T19:24:53.479Z,7.43
2018-09-13T19:27:23.253Z,6.77
2018-09-13T19:29:52.525Z,6.93
2018-09-13T19:32:21.428Z,6.67
2018-09-13T19:34:50.515Z,6.73
2018-09-13T19:37:19.828Z,5.83
2018-09-13T19:39:50.307Z,5.90
2018-09-13T19:42:19.427Z,6.40
2018-09-13T19:44:49.265Z,7.70
2018-09-13T19:47:18.565Z,8.27
2018-09-13T19:49:47.898Z,8.37
2018-09-13T19:52:17.874Z,8.90
2018-09-13T19:54:46.966Z,8.27
2018-09-13T19:57:16.215Z,9.13
2018-09-13T19:59:44.839Z,10.13
2018-09-13T20:02:13.692Z,9.23
2018-09-13T20:04:42.669Z,9.30
2018-09-13T20:07:11.448Z,9.43
2018-09-13T20:09:40.069Z,9.33
2018-09-13T20:12:08.752Z,9.37
2018-09-13T20:14:37.319Z,10.40
2018-09-13T20:17:05.942Z,10.30
2018-09-13T20:19:35.149Z,10.53
2018-09-13T20:22:04.723Z,10.23
2018-09-13T20:24:33.791Z,9.73
2018-09-13T20:27:02.533Z,10.63
2018-09-13T20:29:31.015Z,9.87
2018-09-13T20:31:59.537Z,8.80
2018-09-13T20:34:28.042Z,8.80
2018-09-13T20:36:56.586Z,7.90
2018-09-13T20:39:25.135Z,9.17
2018-09-13T20:41:53.766Z,9.37
2018-09-13T20:44:22.362Z,9.00
2018-09-13T20:46:51.370Z,9.93
2018-09-13T20:49:19.881Z,10.33
2018-09-13T20:51:48.409Z,11.17
2018-09-13T20:54:16.970Z,10.13
2018-09-13T20:56:45.548Z,10.40
2018-09-13T20:59:14.058Z,10.87
2018-09-13T21:01:43.569Z,10.93
2018-09-13T21:04:12.243Z,8.50
2018-09-13T21:06:40.814Z,9.53
2018-09-13T21:09:11.424Z,9.90
2018-09-13T21:11:40.357Z,8.00
2018-09-13T21:14:08.854Z,8.03
2018-09-13T21:16:37.324Z,9.27
2018-09-13T21:19:05.831Z,6.70
2018-09-13T21:21:35.264Z,5.97
2018-09-13T21:24:03.959Z,6.67
2018-09-13T21:26:32.390Z,7.67
2018-09-13T21:29:00.851Z,8.40
2018-09-13T21:31:29.418Z,8.10
2018-09-13T21:33:57.908Z,10.30
2018-09-13T21:36:26.414Z,8.87
2018-09-13T21:38:54.982Z,9.00
2018-09-13T21:41:23.480Z,10.80
2018-09-13T21:43:51.954Z,8.57
2018-09-13T21:46:20.514Z,10.63
2018-09-13T21:48:48.993Z,11.60
2018-09-13T21:51:17.555Z,12.90
2018-09-13T21:53:46.008Z,13.13
2018-09-13T21:56:14.488Z,13.03
2018-09-13T21:58:43.266Z,13.27
2018-09-13T22:01:11.764Z,12.63
2018-09-13T22:03:40.311Z,13.57
2018-09-13T22:06:08.893Z,9.10
2018-09-13T22:08:37.467Z,10.50
2018-09-13T22:11:06.272Z,10.27
2018-09-13T22:13:34.777Z,9.73
2018-09-13T22:16:03.689Z,10.60
2018-09-13T22:18:32.599Z,10.30
2018-09-13T22:21:01.130Z,10.10
2018-09-13T22:23:29.757Z,10.50
2018-09-13T22:25:59.027Z,10.03
2018-09-13T22:28:27.583Z,10.40
2018-09-13T22:30:56.711Z,9.67
2018-09-13T22:33:25.333Z,10.60
2018-09-13T22:35:53.867Z,10.20
2018-09-13T22:38:23.869Z,8.80
2018-09-13T22:40:52.425Z,10.43
2018-09-13T22:43:20.907Z,11.77
2018-09-13T22:45:49.801Z,11.43
2018-09-13T22:48:18.421Z,10.40
2018-09-13T22:50:46.882Z,9.10
2018-09-13T22:53:15.519Z,10.77
2018-09-13T22:55:44.686Z,11.43
2018-09-13T22:58:13.170Z,11.40
2018-09-13T23:00:42.657Z,10.83
2018-09-13T23:03:11.202Z,11.00
2018-09-13T23:05:40.366Z,10.80
2018-09-13T23:08:09.552Z,10.43
2018-09-13T23:10:38.118Z,10.47
2018-09-13T23:13:06.632Z,10.70
2018-09-13T23:15:35.102Z,11.13
2018-09-13T23:18:03.792Z,10.30
2018-09-13T23:20:32.299Z,11.90
2018-09-13T23:23:00.818Z,11.27
2018-09-13T23:25:29.480Z,10.50
2018-09-13T23:27:58.085Z,11.20
2018-09-13T23:30:26.604Z,11.93
2018-09-13T23:32:55.125Z,12.43
2018-09-13T23:35:23.577Z,11.50
2018-09-13T23:37:52.086Z,10.77
2018-09-13T23:40:20.777Z,10.70
2018-09-13T23:42:49.132Z,9.90
2018-09-13T23:45:17.657Z,9.67
2018-09-13T23:47:46.210Z,11.60
2018-09-13T23:50:14.727Z,11.13
2018-09-13T23:52:43.225Z,11.80
2018-09-13T23:55:12.367Z,11.67
2018-09-13T23:57:40.855Z,11.40
